Silver Peak Trail, Santa Catalina Island Weather observations

Data are for 10 minute period ending at time listed.
 Day   Time   Solar   Ave.   Ave.  Ave.  Vector    Max.   Stn.    Total
  of    of     Rad.   Air    Rel.  Wind   Wind     Wind   Baro.  Precip.
Year   Day            Temp.  Hum.  Speed  Dir.     Gust   Pres.         
2016   (PST)   W/m2    F      %     mph   deg.      mph    mb.     in.  
------------------------------------------------------------------------
 125    0:00    0.0    61   58.5     4     16.5     5.4    999.0   0.00  
 125    0:10    0.0    62   60.0     4     16.5     4.8    999.0   0.00  
 125    0:20    0.0    62   59.5     3     16.5     4.8    999.0   0.00  
 125    0:30    0.0    61   60.0     4     16.4     5.4    999.0   0.00  
 125    0:40    0.0    61   59.7     3     16.5     4.8    999.0   0.00  
 125    0:50    0.0    61   59.0     4     16.6     5.4    999.0   0.00  
 125    1:00    0.0    61   59.7     4     16.5     4.8    999.0   0.00  
 125    1:10    0.0    60   60.1     4     16.5     5.4    999.0   0.00  
 125    1:20    0.0    60   61.0     4     16.5     5.4    999.0   0.00  
 125    1:30    0.0    60   61.4     4     16.5     5.4    999.0   0.00  
 125    1:40    0.0    60   61.3     4     16.6     5.4    999.0   0.00  
 125    1:50    0.0    60   60.7     4     16.6     6.0    999.0   0.00  
 125    2:00    0.0    58   62.9     4     16.7     5.4    999.0   0.00  
 125    2:10    0.0    59   61.2     5     16.7     6.6    999.0   0.00  
 125    2:20    0.0    59   60.9     4     16.5     6.6    999.0   0.00  
 125    2:30    0.0    58   63.9     3     16.1     6.0    999.0   0.00  
 125    2:40    0.0    59   61.1     2     16.1     3.6    999.0   0.00  
 125    2:50    0.0    58   64.4     1     16.1     3.6    999.0   0.00  
 125    3:00    0.0    51   81.9     4     16.1     6.6    999.0   0.00  
 125    3:10    0.0    49   91.3     8     16.7    10.2    999.0   0.00  
 125    3:20    0.0    49   93.1     9     16.6    10.8    999.0   0.00  
 125    3:30    0.0    50   93.8     9     16.5    10.8    999.0   0.00  
 125    3:40    0.0    50   94.1    10     17.3    12.5    999.0   0.00  
 125    3:50    0.0    50   94.4     9     16.9    12.5    999.0   0.00  
 125    4:00    0.0    50   94.6    10     16.4    11.9    999.0   0.00  
 125    4:10    0.0    50   94.6     8     16.4    11.3    999.0   0.00  
 125    4:20    0.0    50   94.8     7     16.5     9.6    999.0   0.00  
 125    4:30    0.0    50   94.9     7     16.1     9.6    999.0   0.00  
 125    4:40    0.0    50   94.9     6     16.1     9.0    999.0   0.00  
 125    4:50    0.0    50   95.0     7     16.1    10.2    999.0   0.00  
 125    5:00    1.0    49   95.0     6     16.2    10.2    999.0   0.00  
 125    5:10    4.0    49   95.1     6     16.2     9.6    999.0   0.00  
 125    5:20   10.0    49   95.1     7     15.9    10.8    999.0   0.00  
 125    5:30   16.0    49   95.2     8     16.0    10.2    999.0   0.00  
 125    5:40   33.0    49   95.2     7     15.9     9.0    999.0   0.00  
 125    5:50   46.0    49   95.2     3     15.9     6.0    999.0   0.00  
 125    6:00   63.0    50   95.3     3     15.7     6.0    999.0   0.00  
 125    6:10   72.0    50   95.3     5    355.0     9.0    999.0   0.00  
 125    6:20   83.0    50   95.3     5    354.4     8.4    999.0   0.00  
 125    6:30   84.0    50   95.4     6      5.1     9.6    999.0   0.00  
 125    6:40   91.0    50   95.4     6      5.1     8.4    999.0   0.00  
 125    6:50  102.0    50   95.4     6      5.3     9.6    999.0   0.00  
 125    7:00  103.0    50   95.5     4      4.9     6.6    999.0   0.00  
 125    7:10  119.0    50   95.5     5      5.0     8.4    999.0   0.00  
 125    7:20  118.0    50   95.5     3      4.7     5.4    999.0   0.00  
 125    7:30  132.0    50   95.5     3      4.8     5.4    999.0   0.00  
 125    7:40  157.0    50   95.5     3      4.7     5.4    999.0   0.00  
 125    7:50  171.0    51   95.5     2      4.7     4.8    999.0   0.00  
 125    8:00  163.0    51   95.4     3      4.7     5.4    999.0   0.00  
 125    8:10  175.0    51   95.5     1      4.7     3.0    999.0   0.00  
 125    8:20  166.0    51   95.4     2      4.7     4.2    999.0   0.00  
 125    8:30  195.0    52   95.3     3      4.7     5.4    999.0   0.00  
 125    8:40  249.0    52   95.3     2      4.6     7.2    999.0   0.00  
 125    8:50  274.0    53   95.2     2      4.5     3.0    999.0   0.00  
 125    9:00  329.0    53   94.9     2      4.5     4.2    999.0   0.00  
 125    9:10  315.0    53   94.5     2      4.4     4.2    999.0   0.00  
 125    9:20  305.0    53   94.5     2      4.3     5.4    999.0   0.00  
 125    9:30  358.0    53   94.6     4      4.3     6.0    999.0   0.00  
 125    9:40  408.0    52   94.6     3      3.0     7.2    999.0   0.00  
 125    9:50  423.0    53   94.5     4    348.0     6.0    999.0   0.00  
 125   10:00  442.0    54   94.4     4    341.3     7.2    999.0   0.00  
 125   10:10  500.0    54   93.7     5    335.6     8.4    999.0   0.00  
 125   10:20  628.0    54   92.3     6    328.6    10.8    999.0   0.00  
 125   10:30  681.0    54   90.0     5    320.5     9.0    999.0   0.00  
 125   10:40  746.0    60   81.8     2    347.2     3.6    999.0   0.00  
 125   10:50  692.0    61   75.0     3    347.9     4.8    999.0   0.00  
 125   11:00  563.0    60   75.7     3    345.4     7.2    999.0   0.00  
 125   11:10  999.0    60   77.3     4    338.8     7.8    999.0   0.00  
 125   11:20  837.0    63   71.1     3    339.5     9.6    999.0   0.00  
 125   11:30  999.0    65   68.1     3    339.4     4.8    999.0   0.00  
 125   11:40  511.0    65   66.2     4    339.7     7.2    999.0   0.00  
 125   11:50  407.0    61   72.3     4    339.7     6.6    999.0   0.00  
 125   12:00  392.0    60   74.6     3    339.7     6.0    999.0   0.00  
 125   12:10  405.0    59   76.3     7      1.4    13.1    999.0   0.00  
 125   12:20  502.0    59   77.2     9      6.5    13.7    999.0   0.00  
 125   12:30  490.0    59   75.3     9      7.3    13.7    999.0   0.00  
 125   12:40  818.0    60   75.6     8      5.5    12.5    999.0   0.00  
 125   12:50  947.0    62   72.1     7      9.2    11.9    999.0   0.00  
 125   13:00  976.0    65   66.0     7     15.7    11.9    999.0   0.00  
 125   13:10  947.0    64   65.3     7     15.3    12.5    999.0   0.00  
 125   13:20  913.0    64   66.5     8     12.7    12.5    999.0   0.00  
 125   13:30  915.0    64   66.2     8     13.9    14.3    999.0   0.00  
 125   13:40  902.0    63   66.9     9     13.2    15.5    999.0   0.00  
 125   13:50  889.0    62   68.4    11     12.2    17.3    999.0   0.00  
 125   14:00  852.0    62   68.5     9     12.2    17.9    999.0   0.00  
 125   14:10  836.0    62   67.7     9     11.6    16.1    999.0   0.00  
 125   14:20  813.0    60   69.3     8     13.1    15.5    999.0   0.00  
 125   14:30  790.0    61   69.7     7      4.5    12.5    999.0   0.00  
 125   14:40  765.0    62   66.9     7     12.5    15.5    999.0   0.00  
 125   14:50  739.0    61   69.0     6      6.4    11.9    999.0   0.00  
 125   15:00  713.0    62   67.3     8     12.7    15.5    999.0   0.00  
 125   15:10  684.0    61   69.0     8     16.6    14.3    999.0   0.00  
 125   15:20  655.0    62   67.8     6     10.3    11.9    999.0   0.00  
 125   15:30  626.0    63   66.9     6      7.6    12.5    999.0   0.00  
 125   15:40  596.0    63   66.6     6      4.4    13.7    999.0   0.00  
 125   15:50  558.0    62   67.6     6      6.3    11.9    999.0   0.00  
 125   16:00  432.0    62   69.0     6      8.5    10.8    999.0   0.00  
 125   16:10  284.0    60   71.6     8      8.2    13.1    999.0   0.00  
 125   16:20  380.0    59   75.8     8      8.9    14.9    999.0   0.00  
 125   16:30  262.0    59   74.2     8      9.1    11.9    999.0   0.00  
 125   16:40  158.0    58   76.7     7      5.5    12.5    999.0   0.00  
 125   16:50  151.0    57   78.8     8      7.2    11.3    999.0   0.00  
 125   17:00  165.0    57   80.0     9      5.9    12.5    999.0   0.00  
 125   17:10  134.0    56   80.5     9      6.6    14.3    999.0   0.00  
 125   17:20   92.0    55   83.3    10      4.4    13.1    999.0   0.00  
 125   17:30   80.0    55   83.6    10      4.2    12.5    999.0   0.00  
 125   17:40   64.0    54   85.5     8      4.1    12.5    999.0   0.00  
 125   17:50   62.0    54   87.1    11      9.7    13.7    999.0   0.00  
 125   18:00   59.0    53   87.2    11     10.8    14.3    999.0   0.00  
 125   18:10   36.0    53   88.6    12     14.0    16.7    999.0   0.00  
 125   18:20   25.0    53   89.2    12     13.4    14.3    999.0   0.00  
 125   18:30   14.0    53   89.9    11     13.6    13.7    999.0   0.00  
 125   18:40   10.0    52   89.7    12     16.5    15.5    999.0   0.00  
 125   18:50    3.0    52   90.4    13     15.1    14.9    999.0   0.00  
 125   19:00    1.0    52   91.1    13     16.1    14.3    999.0   0.00  
 125   19:10    0.0    52   91.7    12     13.9    13.7    999.0   0.00  
 125   19:20    0.0    52   92.2    12     10.1    14.3    999.0   0.00  
 125   19:30    0.0    52   92.5    11      9.3    13.7    999.0   0.00  
 125   19:40    0.0    52   93.0     9      8.8    11.3    999.0   0.00  
 125   19:50    0.0    51   93.2     9      8.4    10.2    999.0   0.00  
 125   20:00    0.0    52   93.4    10      8.5    12.5    999.0   0.00  
 125   20:10    0.0    51   93.5     9      8.3    10.8    999.0   0.00  
 125   20:20    0.0    51   93.7     9      8.3    10.8    999.0   0.00  
 125   20:30    0.0    51   93.9     7      7.8     9.6    999.0   0.00  
 125   20:40    0.0    51   94.1     7      7.9     8.4    999.0   0.00  
 125   20:50    0.0    51   94.2     8      8.1     9.0    999.0   0.00  
 125   21:00    0.0    51   94.4     8      8.3     9.6    999.0   0.00  
 125   21:10    0.0    51   94.6     8      8.0    10.2    999.0   0.00  
 125   21:20    0.0    51   94.7     9      7.9    11.3    999.0   0.00  
 125   21:30    0.0    51   94.8    10      8.0    12.5    999.0   0.00  
 125   21:40    0.0    51   94.9    10     15.8    12.5    999.0   0.00  
 125   21:50    0.0    51   94.9    10     15.6    12.5    999.0   0.00  
 125   22:00    0.0    51   95.0    11     15.8    12.5    999.0   0.00  
 125   22:10    0.0    51   95.0    11     15.7    12.5    999.0   0.00  
 125   22:20    0.0    51   95.1    11     15.7    12.5    999.0   0.00  
 125   22:30    0.0    52   95.2    10     15.7    13.7    999.0   0.00  
 125   22:40    0.0    52   95.2    10     16.1    14.3    999.0   0.00  
 125   22:50    0.0    52   95.3    10     15.9    13.7    999.0   0.00  
 125   23:00    0.0    51   95.3     9     15.8    11.9    999.0   0.00  
 125   23:10    0.0    51   95.3     9     15.6    11.9    999.0   0.00  
 125   23:20    0.0    52   95.4     9     15.5    11.9    999.0   0.00  
 125   23:30    0.0    51   95.4    10     15.9    11.9    999.0   0.00  
 125   23:40    0.0    51   95.4     7     16.1     9.6    999.0   0.00  
 125   23:50    0.0    51   95.4     6     15.8     8.4    999.0   0.00  

Return to Silver Peak Trail graphs page.


Western Regional Climate Center,wrcc@dri.edu